createdAt,value
2022-08-30T00:03:23.169Z,98718.47
2022-08-30T00:08:29.472Z,98715.91
2022-08-30T00:13:35.922Z,98714.58
2022-08-30T00:18:42.110Z,98717.02
2022-08-30T00:23:48.471Z,98721.42
2022-08-30T00:28:55.581Z,98724.97
2022-08-30T00:34:01.839Z,98729.52
2022-08-30T00:39:08.222Z,98730.88
2022-08-30T00:44:14.501Z,98732.88
2022-08-30T00:49:20.823Z,98728.40
2022-08-30T00:54:27.595Z,98735.16
2022-08-30T00:59:34.351Z,98733.22
2022-08-30T01:04:42.671Z,98731.48
2022-08-30T01:09:49.002Z,98728.20
2022-08-30T01:14:55.442Z,98729.91
2022-08-30T01:20:03.595Z,98728.56
2022-08-30T01:25:12.331Z,98730.01
2022-08-30T01:30:18.682Z,98728.84
2022-08-30T01:35:25.226Z,98728.09
2022-08-30T01:40:31.555Z,98729.06
2022-08-30T01:45:37.944Z,98727.16
2022-08-30T01:50:44.305Z,98730.52
2022-08-30T01:55:50.541Z,98731.40
2022-08-30T02:00:56.925Z,98725.58
2022-08-30T02:06:05.832Z,98723.50
2022-08-30T02:11:12.772Z,98717.30
2022-08-30T02:16:23.299Z,98721.34
2022-08-30T02:21:29.622Z,98717.90
2022-08-30T02:26:37.766Z,98713.81
2022-08-30T02:31:43.942Z,98708.94
2022-08-30T02:36:50.236Z,98706.13
2022-08-30T02:41:56.672Z,98703.88
2022-08-30T02:47:03.361Z,98704.95
2022-08-30T02:52:09.696Z,98709.89
2022-08-30T02:57:20.119Z,98708.59
2022-08-30T03:02:27.342Z,98711.55
2022-08-30T03:07:33.602Z,98710.23
2022-08-30T03:12:41.781Z,98710.02
2022-08-30T03:17:48.063Z,98711.30
2022-08-30T03:22:54.382Z,98718.66
2022-08-30T03:28:00.775Z,98721.80
2022-08-30T03:33:07.159Z,98715.92
2022-08-30T03:38:13.582Z,98723.05
2022-08-30T03:43:20.009Z,98725.48
2022-08-30T03:48:26.837Z,98729.80
2022-08-30T03:53:33.123Z,98732.08
2022-08-30T03:58:41.028Z,98729.10
2022-08-30T04:03:47.322Z,98732.98
2022-08-30T04:08:53.683Z,98733.96
2022-08-30T04:14:00.041Z,98734.30
2022-08-30T04:19:06.433Z,98743.11
2022-08-30T04:24:13.213Z,98752.89
2022-08-30T04:29:19.522Z,98753.30
2022-08-30T04:34:25.775Z,98754.73
2022-08-30T04:39:31.981Z,98755.14
2022-08-30T04:44:38.062Z,98754.73
2022-08-30T04:49:44.342Z,98762.05
2022-08-30T04:54:50.366Z,98762.23
2022-08-30T04:59:57.052Z,98768.30
2022-08-30T05:05:21.471Z,98768.16
2022-08-30T05:10:28.162Z,98767.85
2022-08-30T05:15:34.415Z,98772.49
2022-08-30T05:20:40.972Z,98783.41
2022-08-30T05:25:47.152Z,98788.44
2022-08-30T05:30:53.423Z,98783.39
2022-08-30T05:35:59.583Z,98788.73
2022-08-30T05:41:10.536Z,98790.27
2022-08-30T05:46:20.071Z,98786.52
2022-08-30T05:51:29.063Z,98792.20
2022-08-30T05:56:36.042Z,98794.21
2022-08-30T06:01:43.344Z,98797.95
2022-08-30T06:06:49.526Z,98797.01
2022-08-30T06:11:55.774Z,98795.93
2022-08-30T06:17:02.041Z,98799.52
2022-08-30T06:22:08.272Z,98802.86
2022-08-30T06:27:14.561Z,98801.09
2022-08-30T06:32:20.995Z,98807.16
2022-08-30T06:37:30.104Z,98800.38
2022-08-30T06:42:36.581Z,98801.09
2022-08-30T06:47:42.910Z,98803.98
2022-08-30T06:52:51.082Z,98805.63
2022-08-30T06:57:57.252Z,98806.98
2022-08-30T07:03:04.134Z,98814.77
2022-08-30T07:08:10.553Z,98822.31
2022-08-30T07:13:17.386Z,98822.25
2022-08-30T07:18:41.736Z,98820.10
2022-08-30T07:23:53.065Z,98818.54
2022-08-30T07:28:59.723Z,98817.23
2022-08-30T07:34:06.402Z,98819.84
2022-08-30T07:39:12.750Z,98820.84
2022-08-30T07:44:19.422Z,98820.37
2022-08-30T07:49:31.652Z,98819.66
2022-08-30T07:54:38.041Z,98817.39
2022-08-30T07:59:44.523Z,98815.96
2022-08-30T08:04:51.078Z,98821.13
2022-08-30T08:09:57.400Z,98830.88
2022-08-30T08:15:06.714Z,98832.91
2022-08-30T08:20:14.915Z,98837.42
2022-08-30T08:25:21.421Z,98831.69
2022-08-30T08:30:27.763Z,98837.73
2022-08-30T08:35:34.603Z,98841.60
2022-08-30T08:40:45.977Z,98839.45
2022-08-30T08:45:56.020Z,98843.23
2022-08-30T08:51:21.267Z,98846.77
2022-08-30T08:56:27.332Z,98844.08
2022-08-30T09:01:33.962Z,98843.33
2022-08-30T09:06:47.062Z,98847.40
2022-08-30T09:11:53.406Z,98847.90
2022-08-30T09:17:04.067Z,98840.43
2022-08-30T09:22:17.746Z,98841.39
2022-08-30T09:27:26.092Z,98844.85
2022-08-30T09:32:35.532Z,98847.20
2022-08-30T09:37:42.748Z,98840.23
2022-08-30T09:43:02.210Z,98834.30
2022-08-30T09:48:28.882Z,98837.05
2022-08-30T09:53:37.734Z,98835.41
2022-08-30T09:58:55.536Z,98832.52
2022-08-30T10:04:03.913Z,98834.27
2022-08-30T10:09:17.952Z,98824.88
2022-08-30T10:14:31.572Z,98825.48
2022-08-30T10:19:45.463Z,98825.01
2022-08-30T10:24:54.566Z,98819.70
2022-08-30T10:30:03.062Z,98812.46
2022-08-30T10:35:09.906Z,98809.13
2022-08-30T10:40:36.877Z,98810.92
2022-08-30T10:45:45.472Z,98807.56
2022-08-30T10:50:53.921Z,98801.21
2022-08-30T10:56:02.856Z,98796.04
2022-08-30T11:01:24.539Z,98797.27
2022-08-30T11:06:41.152Z,98790.29
2022-08-30T11:12:01.732Z,98785.22
2022-08-30T11:17:24.711Z,98790.36
2022-08-30T11:22:36.719Z,98791.18
2022-08-30T11:27:47.349Z,98784.89
2022-08-30T11:33:02.295Z,98782.83
2022-08-30T11:38:23.073Z,98776.75
2022-08-30T11:43:46.496Z,98767.55
2022-08-30T11:48:55.677Z,98772.71
2022-08-30T11:54:05.521Z,98774.10
2022-08-30T11:59:21.213Z,98778.08
2022-08-30T12:04:30.773Z,98773.83
2022-08-30T12:10:02.851Z,98768.83
2022-08-30T12:15:09.182Z,98759.42
2022-08-30T12:20:23.831Z,98755.89
2022-08-30T12:25:32.907Z,98755.23
2022-08-30T12:30:41.225Z,98748.65
2022-08-30T12:35:48.441Z,98743.05
2022-08-30T12:40:56.622Z,98737.20
2022-08-30T12:46:07.480Z,98730.97
2022-08-30T12:51:27.696Z,98729.81
2022-08-30T12:56:49.487Z,98715.72
2022-08-30T13:01:56.488Z,98713.23
2022-08-30T13:07:03.978Z,98703.95
2022-08-30T13:12:12.289Z,98700.73
2022-08-30T13:17:25.501Z,98700.33
2022-08-30T13:22:32.675Z,98695.74
2022-08-30T13:27:40.232Z,98688.16
2022-08-30T13:32:46.649Z,98686.44
2022-08-30T13:37:53.293Z,98684.64
2022-08-30T13:42:59.591Z,98684.39
2022-08-30T13:48:07.442Z,98681.00
2022-08-30T13:53:13.787Z,98679.05
2022-08-30T13:58:20.541Z,98684.08
2022-08-30T14:03:26.906Z,98683.30
2022-08-30T14:08:52.335Z,98681.55
2022-08-30T14:14:15.453Z,98678.41
2022-08-30T14:19:23.961Z,98661.42
2022-08-30T14:24:30.471Z,98666.98
2022-08-30T14:29:36.775Z,98656.98
2022-08-30T14:34:43.131Z,98654.65
2022-08-30T14:39:52.085Z,98652.41
2022-08-30T14:44:58.362Z,98654.91
2022-08-30T14:50:05.412Z,98655.69
2022-08-30T14:55:14.129Z,98655.40
2022-08-30T15:00:21.145Z,98653.88
2022-08-30T15:05:32.252Z,98656.44
2022-08-30T15:10:41.742Z,98652.98
2022-08-30T15:15:49.406Z,98655.02
2022-08-30T15:20:56.832Z,98650.08
2022-08-30T15:26:03.777Z,98647.85
2022-08-30T15:31:10.644Z,98649.99
2022-08-30T15:36:17.053Z,98648.77
2022-08-30T15:41:24.795Z,98650.31
2022-08-30T15:46:32.595Z,98650.63
2022-08-30T15:51:41.148Z,98649.48
2022-08-30T15:56:48.542Z,98653.17
2022-08-30T16:01:54.922Z,98651.54
2022-08-30T16:07:04.052Z,98646.80
2022-08-30T16:12:11.161Z,98642.19
2022-08-30T16:17:17.542Z,98638.38
2022-08-30T16:22:26.072Z,98640.42
2022-08-30T16:27:32.561Z,98641.63
2022-08-30T16:32:39.663Z,98640.65
2022-08-30T16:37:46.912Z,98643.29
2022-08-30T16:42:53.385Z,98637.16
2022-08-30T16:47:59.651Z,98640.73
2022-08-30T16:53:06.005Z,98641.80
2022-08-30T16:58:18.873Z,98644.27
2022-08-30T17:03:25.761Z,98642.73
2022-08-30T17:08:32.169Z,98655.53
2022-08-30T17:13:38.609Z,98655.02
2022-08-30T17:18:45.147Z,98658.59
2022-08-30T17:23:51.290Z,98658.63
2022-08-30T17:28:57.564Z,98668.11
2022-08-30T17:34:05.971Z,98667.86
2022-08-30T17:39:13.025Z,98676.33
2022-08-30T17:44:19.562Z,98683.85
2022-08-30T17:49:27.105Z,98688.55
2022-08-30T17:54:34.261Z,98697.63
2022-08-30T17:59:40.599Z,98700.55
2022-08-30T18:04:46.971Z,98703.72
2022-08-30T18:09:53.915Z,98711.85
2022-08-30T18:15:00.878Z,98713.88
2022-08-30T18:44:29.210Z,98738.45
2022-08-30T19:11:07.362Z,98747.05
2022-08-30T19:16:12.392Z,98743.05
2022-08-30T19:21:17.032Z,98745.44
2022-08-30T19:26:24.450Z,98749.80
2022-08-30T19:31:31.542Z,98748.23
2022-08-30T19:36:35.773Z,98741.75
2022-08-30T19:41:39.873Z,98742.36
2022-08-30T19:46:43.521Z,98743.95
2022-08-30T19:51:47.353Z,98748.60
2022-08-30T19:56:51.342Z,98746.97
2022-08-30T20:01:55.216Z,98746.91
2022-08-30T20:06:59.123Z,98741.71
2022-08-30T20:12:03.562Z,98742.44
2022-08-30T20:17:11.591Z,98741.75
2022-08-30T20:22:15.812Z,98747.63
2022-08-30T20:27:19.522Z,98739.64
2022-08-30T20:32:24.271Z,98740.33
2022-08-30T20:37:29.442Z,98736.56
2022-08-30T20:42:33.094Z,98734.66
2022-08-30T20:47:38.431Z,98737.41
2022-08-30T20:52:42.256Z,98737.91
2022-08-30T20:57:45.955Z,98736.02
2022-08-30T21:02:49.836Z,98735.89
2022-08-30T21:07:53.596Z,98740.02
2022-08-30T21:12:57.316Z,98744.63
2022-08-30T21:18:00.834Z,98745.52
2022-08-30T21:23:04.764Z,98749.43
2022-08-30T21:28:08.573Z,98749.68
2022-08-30T21:33:12.517Z,98753.60
2022-08-30T21:38:16.690Z,98747.44
2022-08-30T21:43:20.662Z,98754.72
2022-08-30T21:48:24.282Z,98753.47
2022-08-30T21:53:27.688Z,98749.19
2022-08-30T21:58:31.204Z,98744.61
2022-08-30T22:03:34.728Z,98735.83
2022-08-30T22:08:38.656Z,98733.00
2022-08-30T22:13:43.897Z,98724.61
2022-08-30T22:18:48.134Z,98721.39
2022-08-30T22:23:52.443Z,98721.54
2022-08-30T22:28:56.482Z,98718.25
2022-08-30T22:34:00.323Z,98722.31
2022-08-30T22:39:05.477Z,98723.23
2022-08-30T22:44:09.293Z,98727.45
2022-08-30T22:49:13.025Z,98727.27
2022-08-30T22:54:17.363Z,98721.35
2022-08-30T22:59:21.083Z,98731.66
2022-08-30T23:04:36.373Z,98729.53
2022-08-30T23:09:40.193Z,98729.89
2022-08-30T23:14:43.914Z,98729.59
2022-08-30T23:19:47.836Z,98728.27
2022-08-30T23:25:12.615Z,98725.91
2022-08-30T23:30:37.972Z,98728.44
2022-08-30T23:36:00.644Z,98727.79
2022-08-30T23:41:22.592Z,98737.50
2022-08-30T23:46:54.673Z,98738.71
2022-08-30T23:52:16.523Z,98739.86
2022-08-30T23:57:38.162Z,98731.61
